Time;durP1;ratioP1;P1;durP2;ratioP2;P2;SDS_P1;SDS_P2;PMS_P1;PMS_P2;Temp;Humidity;BMP_temperature;BMP_pressure;BME280_temperature;BME280_humidity;BME280_pressure;Samples;Min_cycle;Max_cycle;Signal;HPM_P1;HPM_P2
2022/05/08 00:00:53;;;;;;;7.20;5.90;;;15.60;99.90;;;;;;10335600;28;20224;-71
2022/05/08 00:05:54;;;;;;;9.00;6.20;;;15.50;99.90;;;;;;10327653;28;20241;-71
2022/05/08 00:10:54;;;;;;;8.97;6.80;;;15.50;99.90;;;;;;10332564;28;20244;-71
2022/05/08 00:15:55;;;;;;;8.70;6.50;;;15.50;99.90;;;;;;10351781;28;20312;-70
2022/05/08 00:20:56;;;;;;;7.37;6.63;;;15.50;99.90;;;;;;10364717;28;20282;-72
2022/05/08 00:25:56;;;;;;;9.43;6.40;;;15.50;99.90;;;;;;10361334;28;20307;-70
2022/05/08 00:30:57;;;;;;;7.33;6.20;;;15.30;99.90;;;;;;10342431;28;20279;-72
2022/05/08 00:35:57;;;;;;;7.77;6.60;;;15.20;99.90;;;;;;10360073;28;20787;-72
2022/05/08 00:40:58;;;;;;;9.13;7.10;;;15.20;99.90;;;;;;10365415;28;20229;-72
2022/05/08 00:46:00;;;;;;;9.03;7.00;;;15.20;99.90;;;;;;10346591;28;20232;-71
2022/05/08 00:51:04;;;;;;;9.33;7.33;;;15.10;99.90;;;;;;10359268;28;20219;-72
2022/05/08 00:56:08;;;;;;;8.67;7.17;;;15.10;99.90;;;;;;10364059;28;20233;-71
2022/05/08 01:01:09;;;;;;;8.13;7.33;;;15.00;99.90;;;;;;10341242;28;20255;-71
2022/05/08 01:06:15;;;;;;;9.30;7.80;;;15.00;99.90;;;;;;10359725;28;20295;-72
2022/05/08 01:11:17;;;;;;;9.20;7.90;;;14.90;99.90;;;;;;10361840;28;20699;-71
2022/05/08 01:16:21;;;;;;;11.33;7.73;;;14.80;99.90;;;;;;10339202;28;20261;-71
2022/05/08 01:21:50;;;;;;;9.00;8.10;;;14.70;99.90;;;;;;10356748;28;20838;-70
2022/05/08 01:26:51;;;;;;;13.77;8.90;;;14.70;99.90;;;;;;10335994;28;20222;-70
2022/05/08 01:31:52;;;;;;;12.20;8.90;;;14.60;99.90;;;;;;10354164;28;20225;-71
2022/05/08 01:36:52;;;;;;;8.87;8.07;;;14.60;99.90;;;;;;10346905;28;20225;-70
2022/05/08 01:41:53;;;;;;;10.50;8.60;;;14.60;99.90;;;;;;10353102;28;20222;-71
2022/05/08 01:48:21;;;;;;;10.70;8.43;;;14.60;99.90;;;;;;10340588;28;20242;-70
2022/05/08 01:52:17;;;;;;;8.53;7.73;;;14.50;99.90;;;;;;10352605;28;20221;-71
2022/05/08 01:57:20;;;;;;;10.27;8.77;;;14.40;99.90;;;;;;10347989;28;20213;-71
2022/05/08 02:02:21;;;;;;;11.57;8.10;;;14.40;99.90;;;;;;10340074;28;20238;-71
2022/05/08 02:07:21;;;;;;;9.73;8.30;;;14.40;99.90;;;;;;10354890;28;20313;-72
2022/05/08 02:12:22;;;;;;;9.37;8.47;;;14.30;99.90;;;;;;10330636;28;20222;-71
2022/05/08 02:17:23;;;;;;;9.97;8.47;;;14.30;99.90;;;;;;10336529;28;20864;-72
2022/05/08 02:22:24;;;;;;;10.47;8.50;;;14.30;99.90;;;;;;10355601;28;20576;-71
2022/05/08 02:27:24;;;;;;;10.00;8.53;;;14.10;99.90;;;;;;10349939;28;20233;-72
2022/05/08 02:32:25;;;;;;;9.57;8.37;;;14.10;99.90;;;;;;10342039;28;20225;-71
2022/05/08 02:37:32;;;;;;;10.80;9.03;;;13.90;99.90;;;;;;10359474;28;20763;-70
2022/05/08 02:42:33;;;;;;;11.77;9.10;;;13.80;99.90;;;;;;10355782;28;20224;-73
2022/05/08 02:47:33;;;;;;;10.77;9.77;;;13.70;99.90;;;;;;10333303;28;20586;-70
2022/05/08 02:52:35;;;;;;;10.60;9.13;;;13.60;99.90;;;;;;10344541;28;20225;-71
2022/05/08 03:02:55;;;;;;;12.03;9.83;;;13.40;99.90;;;;;;10357698;28;20225;-71
2022/05/08 03:07:56;;;;;;;11.10;10.00;;;13.40;99.90;;;;;;10354636;28;20670;-70
2022/05/08 03:12:56;;;;;;;11.00;9.80;;;13.30;99.90;;;;;;10345000;28;20226;-71
2022/05/08 03:17:57;;;;;;;13.03;10.20;;;13.30;99.90;;;;;;10359740;28;20240;-70
2022/05/08 03:22:59;;;;;;;10.90;9.77;;;13.20;99.90;;;;;;10334461;28;20247;-70
2022/05/08 03:28:00;;;;;;;12.73;9.93;;;13.20;99.90;;;;;;10338203;28;20567;-71
2022/05/08 03:33:00;;;;;;;11.83;10.30;;;13.20;99.90;;;;;;10352133;28;20233;-70
2022/05/08 03:38:01;;;;;;;11.30;9.97;;;13.30;99.90;;;;;;10335677;28;20243;-71
2022/05/08 03:43:02;;;;;;;11.33;9.77;;;13.20;99.90;;;;;;10350306;28;20229;-72
2022/05/08 03:48:03;;;;;;;12.13;9.97;;;13.20;99.90;;;;;;10359891;28;20581;-71
2022/05/08 03:53:09;;;;;;;11.53;9.87;;;13.10;99.90;;;;;;10354020;28;20221;-70
2022/05/08 03:58:10;;;;;;;13.67;10.07;;;13.00;99.90;;;;;;10343554;28;20221;-71
2022/05/08 04:03:14;;;;;;;15.80;10.80;;;13.00;99.90;;;;;;10335820;28;20232;-69
2022/05/08 04:08:14;;;;;;;13.23;10.70;;;13.00;99.90;;;;;;10361190;28;20225;-71
2022/05/08 04:13:15;;;;;;;14.77;11.63;;;13.10;99.90;;;;;;10365417;28;20229;-71
2022/05/08 04:18:16;;;;;;;17.17;12.07;;;13.10;99.90;;;;;;10347891;28;20245;-71
2022/05/08 04:28:35;;;;;;;18.17;11.37;;;13.20;99.90;;;;;;10363400;28;20245;-71
2022/05/08 04:33:36;;;;;;;16.17;10.63;;;13.40;99.90;;;;;;10351942;28;20250;-71
2022/05/08 04:38:36;;;;;;;12.33;9.70;;;13.40;99.90;;;;;;10367234;28;20210;-71
2022/05/08 04:43:38;;;;;;;13.67;10.00;;;13.50;99.90;;;;;;10362681;28;20225;-71
2022/05/08 04:48:41;;;;;;;12.60;9.70;;;13.60;99.90;;;;;;10340695;28;20733;-71
2022/05/08 04:53:42;;;;;;;12.87;10.13;;;13.70;99.90;;;;;;10355219;28;20228;-71
2022/05/08 04:58:43;;;;;;;11.27;9.13;;;13.80;99.90;;;;;;10358534;28;20229;-71
2022/05/08 05:03:44;;;;;;;12.20;9.47;;;13.80;99.90;;;;;;10358323;28;20234;-72
2022/05/08 05:08:45;;;;;;;10.60;9.50;;;14.00;99.90;;;;;;10357851;28;20642;-72
2022/05/08 05:13:45;;;;;;;10.97;9.20;;;14.20;99.90;;;;;;10349660;28;20221;-72
2022/05/08 05:18:46;;;;;;;12.27;9.23;;;14.60;99.90;;;;;;10348112;28;20240;-71
2022/05/08 05:23:47;;;;;;;11.07;8.93;;;14.70;99.90;;;;;;10358875;28;20229;-71
2022/05/08 05:28:48;;;;;;;12.20;9.50;;;14.70;99.90;;;;;;10341827;28;20774;-72
2022/05/08 05:33:48;;;;;;;11.47;9.90;;;14.70;99.90;;;;;;10356846;28;20847;-71
2022/05/08 05:38:49;;;;;;;10.70;9.20;;;14.80;99.90;;;;;;10349662;28;20249;-71
2022/05/08 05:43:50;;;;;;;12.80;8.73;;;14.90;99.90;;;;;;10355752;28;20256;-71
2022/05/08 05:48:50;;;;;;;11.07;8.87;;;15.30;99.90;;;;;;10350639;28;20267;-71
2022/05/08 05:53:51;;;;;;;11.03;8.40;;;15.40;99.90;;;;;;10355826;28;20599;-70
2022/05/08 05:58:51;;;;;;;10.40;8.23;;;15.70;99.90;;;;;;10353967;28;20694;-70
2022/05/08 06:03:52;;;;;;;8.93;7.60;;;16.50;99.90;;;;;;10352553;28;20220;-71
2022/05/08 06:08:55;;;;;;;7.43;6.73;;;18.90;99.90;;;;;;10353515;28;20224;-71
2022/05/08 06:13:56;;;;;;;9.13;6.67;;;20.40;99.90;;;;;;10356781;28;20261;-72
2022/05/08 06:18:58;;;;;;;8.10;6.60;;;21.30;99.90;;;;;;10357772;28;20289;-71
2022/05/08 06:23:58;;;;;;;6.83;5.40;;;21.50;99.90;;;;;;10353374;28;20283;-70
2022/05/08 06:28:59;;;;;;;8.77;6.63;;;21.90;99.50;;;;;;10348088;28;20824;-70
2022/05/08 06:33:59;;;;;;;8.87;6.00;;;22.20;98.10;;;;;;10335483;28;20222;-70
2022/05/08 06:39:00;;;;;;;8.97;6.00;;;23.50;94.60;;;;;;10345191;28;20303;-70
2022/05/08 06:44:01;;;;;;;7.70;4.87;;;24.50;90.60;;;;;;10353908;28;20229;-71
2022/05/08 06:49:02;;;;;;;5.90;5.30;;;24.50;86.50;;;;;;10350215;28;20233;-70
2022/05/08 06:54:03;;;;;;;5.90;5.30;;;24.90;82.30;;;;;;10325994;28;20317;-72
2022/05/08 07:04:23;;;;;;;7.47;5.50;;;23.30;84.60;;;;;;10352523;28;20311;-71
2022/05/08 07:09:24;;;;;;;7.90;5.40;;;21.90;90.40;;;;;;10352343;28;20288;-71
2022/05/08 07:14:24;;;;;;;9.70;5.70;;;21.60;92.00;;;;;;10340831;28;20312;-72
2022/05/08 07:19:25;;;;;;;7.00;5.43;;;21.60;91.70;;;;;;10337860;28;20272;-72
2022/05/08 07:24:25;;;;;;;5.90;5.30;;;23.10;88.80;;;;;;10349827;28;20495;-70
2022/05/08 07:29:26;;;;;;;6.73;5.47;;;24.20;82.90;;;;;;10356439;28;20224;-71
2022/05/08 07:39:46;;;;;;;6.43;5.33;;;24.90;78.00;;;;;;10352351;28;20217;-71
2022/05/08 07:44:47;;;;;;;6.27;5.20;;;26.00;73.00;;;;;;10334338;28;20237;-70
2022/05/08 07:49:47;;;;;;;7.07;4.97;;;25.80;70.50;;;;;;10351012;28;20253;-71
2022/05/08 07:54:48;;;;;;;5.83;4.80;;;26.60;67.80;;;;;;10357441;28;20242;-70
2022/05/08 07:59:49;;;;;;;6.40;5.27;;;26.70;63.70;;;;;;10341335;28;20221;-71
2022/05/08 08:04:50;;;;;;;6.57;5.60;;;26.30;64.30;;;;;;10344677;28;20308;-71
2022/05/08 08:09:51;;;;;;;7.00;4.70;;;26.20;64.70;;;;;;10350819;28;20919;-71
2022/05/08 08:14:51;;;;;;;7.70;4.90;;;26.70;63.20;;;;;;10349880;28;20225;-70
2022/05/08 08:19:52;;;;;;;5.00;4.40;;;27.90;60.80;;;;;;10334991;28;20575;-71
2022/05/08 08:24:56;;;;;;;4.87;4.30;;;29.20;56.00;;;;;;10353627;28;20226;-71
2022/05/08 08:29:57;;;;;;;6.73;4.37;;;29.10;55.60;;;;;;10356806;28;20296;-70
2022/05/08 08:34:58;;;;;;;4.47;3.93;;;28.40;54.80;;;;;;10345360;28;20280;-71
2022/05/08 08:39:59;;;;;;;5.50;4.07;;;29.30;53.00;;;;;;10358478;28;20307;-71
2022/05/08 08:50:26;;;;;;;6.97;4.93;;;29.80;51.60;;;;;;10361701;28;20217;-71
2022/05/08 08:55:27;;;;;;;4.43;3.63;;;29.60;52.60;;;;;;10340767;28;20230;-71
2022/05/08 09:00:28;;;;;;;8.77;4.20;;;32.30;48.40;;;;;;10355312;28;20233;-71
2022/05/08 09:05:29;;;;;;;4.23;3.83;;;32.40;45.70;;;;;;10358838;28;20800;-74
2022/05/08 09:10:36;;;;;;;5.00;4.13;;;33.40;43.30;;;;;;10363683;28;20599;-71
2022/05/08 09:15:37;;;;;;;5.33;3.03;;;33.50;41.30;;;;;;10358414;28;20647;-72
2022/05/08 09:20:40;;;;;;;4.73;3.80;;;33.60;42.90;;;;;;10355834;28;20305;-72
2022/05/08 09:25:44;;;;;;;6.80;3.43;;;33.40;41.30;;;;;;10338554;28;20272;-72
2022/05/08 09:31:02;;;;;;;4.00;3.20;;;33.60;42.20;;;;;;10364017;28;20297;-71
2022/05/08 09:36:06;;;;;;;4.03;3.63;;;33.80;41.50;;;;;;10341528;28;20233;-71
2022/05/08 09:41:08;;;;;;;5.93;3.37;;;34.90;38.90;;;;;;10360197;28;20288;-72
2022/05/08 09:46:09;;;;;;;3.70;3.10;;;33.70;40.00;;;;;;10360326;28;20732;-72
2022/05/08 09:51:11;;;;;;;6.23;3.77;;;34.70;39.10;;;;;;10337978;28;20362;-72
2022/05/08 09:56:13;;;;;;;5.20;3.70;;;34.90;37.80;;;;;;10343748;28;20308;-72
2022/05/08 10:01:16;;;;;;;3.97;3.23;;;35.20;38.50;;;;;;10353086;28;20270;-72
2022/05/08 10:06:17;;;;;;;7.70;3.50;;;35.40;37.70;;;;;;10347394;28;20311;-73
2022/05/08 10:16:55;;;;;;;3.77;3.33;;;34.90;38.50;;;;;;10362228;28;20225;-71
2022/05/08 10:22:03;;;;;;;6.87;3.70;;;35.10;37.60;;;;;;10350054;28;20772;-71
2022/05/08 10:27:11;;;;;;;3.43;3.07;;;34.40;37.50;;;;;;10359618;28;20292;-74
2022/05/08 10:32:14;;;;;;;4.80;3.70;;;35.20;37.30;;;;;;10350047;28;20316;-71
2022/05/08 10:37:25;;;;;;;5.13;3.87;;;37.00;34.80;;;;;;10354516;28;20221;-71
2022/05/08 10:42:29;;;;;;;3.87;3.53;;;36.50;34.20;;;;;;10354331;28;20235;-71
2022/05/08 10:47:32;;;;;;;5.87;3.20;;;35.30;35.30;;;;;;10328561;28;20222;-71
2022/05/08 10:52:37;;;;;;;6.63;3.67;;;37.60;34.50;;;;;;10352534;28;20237;-71
2022/05/08 10:57:39;;;;;;;3.80;3.40;;;38.70;31.90;;;;;;10354812;28;20295;-72
2022/05/08 11:02:50;;;;;;;4.43;3.13;;;36.10;33.90;;;;;;10354132;28;20276;-71
2022/05/08 11:07:58;;;;;;;4.10;3.30;;;38.00;33.70;;;;;;10353757;28;20221;-73
2022/05/08 11:13:17;;;;;;;3.87;3.50;;;35.70;35.60;;;;;;10335624;28;20229;-72
2022/05/08 11:18:19;;;;;;;4.43;3.30;;;36.40;33.90;;;;;;10333698;28;20230;-73
2022/05/08 11:23:29;;;;;;;4.37;3.13;;;36.50;34.20;;;;;;10353503;28;20237;-72
2022/05/08 11:28:30;;;;;;;4.23;3.83;;;37.40;33.00;;;;;;10333564;28;20696;-72
2022/05/08 11:39:24;;;;;;;6.03;3.60;;;34.50;37.10;;;;;;10360149;28;20205;-72
2022/05/08 11:44:24;;;;;;;5.97;4.80;;;33.00;39.10;;;;;;10349890;28;20275;-70
2022/05/08 11:49:29;;;;;;;5.50;4.70;;;30.90;42.30;;;;;;10337454;28;20226;-72
2022/05/08 11:54:40;;;;;;;5.00;4.33;;;29.00;46.30;;;;;;10355457;28;20221;-72
2022/05/08 11:59:46;;;;;;;6.00;4.70;;;28.60;46.50;;;;;;10351376;28;20205;-72
2022/05/08 12:04:54;;;;;;;4.70;4.13;;;28.60;45.40;;;;;;10333116;28;20372;-71
2022/05/08 12:09:56;;;;;;;5.00;4.20;;;27.80;46.80;;;;;;10345070;28;20735;-72
2022/05/08 12:15:08;;;;;;;4.43;4.00;;;27.10;49.10;;;;;;10359021;28;20295;-71
2022/05/08 12:20:15;;;;;;;4.80;4.10;;;26.50;48.80;;;;;;10363470;28;20749;-72
2022/05/08 12:25:16;;;;;;;6.43;4.57;;;26.60;50.00;;;;;;10360334;28;20184;-72
2022/05/08 12:30:17;;;;;;;7.10;4.43;;;27.00;49.10;;;;;;10362256;28;20869;-71
2022/05/08 12:35:19;;;;;;;5.80;4.50;;;26.70;50.10;;;;;;10338287;28;20214;-71
2022/05/08 12:40:20;;;;;;;4.70;4.20;;;26.10;50.30;;;;;;10353152;28;20215;-70
2022/05/08 12:45:20;;;;;;;5.73;3.27;;;25.80;50.20;;;;;;10350209;28;20219;-71
2022/05/08 12:50:21;;;;;;;7.57;3.80;;;26.00;49.50;;;;;;10345748;28;20211;-72
2022/05/08 12:55:22;;;;;;;6.27;3.93;;;26.20;48.80;;;;;;10353974;28;20208;-72
2022/05/08 13:00:23;;;;;;;5.67;3.77;;;26.00;49.40;;;;;;10364082;28;20239;-73
2022/05/08 13:05:24;;;;;;;5.27;3.60;;;26.30;48.70;;;;;;10359416;28;20233;-71
2022/05/08 13:10:26;;;;;;;4.20;3.33;;;26.50;47.90;;;;;;10356811;28;20217;-72
2022/05/08 13:15:26;;;;;;;6.10;3.20;;;26.50;47.40;;;;;;10359019;28;20243;-71
2022/05/08 13:20:27;;;;;;;4.70;2.87;;;26.60;46.40;;;;;;10360833;28;20216;-76
2022/05/08 13:25:28;;;;;;;3.23;2.90;;;26.70;46.60;;;;;;10358326;28;20236;-72
2022/05/08 13:30:28;;;;;;;5.13;3.50;;;26.60;46.00;;;;;;10356434;28;20220;-70
2022/05/08 13:35:29;;;;;;;4.70;2.83;;;26.00;48.10;;;;;;10356998;28;20251;-72
2022/05/08 13:40:30;;;;;;;8.07;3.60;;;25.50;48.30;;;;;;10344581;28;20232;-71
2022/05/08 13:45:31;;;;;;;5.60;2.97;;;24.90;50.60;;;;;;10350952;28;20226;-71
2022/05/08 13:50:32;;;;;;;6.53;3.23;;;24.50;51.80;;;;;;10347763;28;20725;-71
2022/05/08 13:55:32;;;;;;;25.77;6.30;;;24.40;52.40;;;;;;10361081;28;20229;-71
2022/05/08 14:00:34;;;;;;;7.77;4.33;;;23.10;77.20;;;;;;10350963;28;20224;-72
2022/05/08 14:05:35;;;;;;;4.43;3.53;;;20.80;99.90;;;;;;10336785;28;20234;-72
2022/05/08 14:10:37;;;;;;;9.07;3.63;;;21.00;99.90;;;;;;10354394;28;20217;-71
2022/05/08 14:15:39;;;;;;;6.30;3.93;;;21.50;98.70;;;;;;10340201;28;20232;-72
2022/05/08 14:20:40;;;;;;;8.43;4.20;;;21.70;99.90;;;;;;10354430;28;20233;-71
2022/05/08 14:25:40;;;;;;;4.97;3.80;;;21.80;98.50;;;;;;10355573;28;20233;-71
2022/05/08 14:36:01;;;;;;;4.17;3.17;;;21.80;97.30;;;;;;10345141;28;20240;-71
2022/05/08 14:36:01;;;;;;;3.97;3.20;;;21.60;95.40;;;;;;10353292;28;20229;-71
2022/05/08 14:41:04;;;;;;;4.47;3.13;;;21.40;95.10;;;;;;10351533;28;20222;-72
2022/05/08 14:46:04;;;;;;;3.00;2.53;;;21.40;94.00;;;;;;10353527;28;20715;-71
2022/05/08 14:51:12;;;;;;;2.63;2.30;;;21.50;91.40;;;;;;10348323;28;20308;-70
2022/05/08 14:56:13;;;;;;;2.27;2.07;;;21.40;90.00;;;;;;10334951;28;20312;-70
2022/05/08 15:01:13;;;;;;;2.63;1.73;;;21.50;87.90;;;;;;10366302;28;20275;-70
2022/05/08 15:06:14;;;;;;;3.93;2.20;;;21.50;86.90;;;;;;10365190;28;20791;-71
2022/05/08 15:11:18;;;;;;;3.07;2.00;;;21.60;87.90;;;;;;10355105;28;20218;-71
2022/05/08 15:16:18;;;;;;;4.33;2.30;;;21.60;88.50;;;;;;10360396;28;20324;-70
2022/05/08 15:21:20;;;;;;;3.43;2.30;;;21.60;86.80;;;;;;10350424;28;20336;-71
2022/05/08 15:26:21;;;;;;;7.23;2.23;;;21.80;86.70;;;;;;10347323;28;20218;-71
2022/05/08 15:31:21;;;;;;;2.77;2.10;;;21.90;87.20;;;;;;10357389;28;20228;-71
2022/05/08 15:36:22;;;;;;;2.20;2.00;;;21.90;81.80;;;;;;10346325;28;20264;-72
2022/05/08 15:41:22;;;;;;;4.13;2.30;;;21.70;81.10;;;;;;10357888;28;20351;-73
2022/05/08 15:46:23;;;;;;;7.13;2.60;;;21.50;83.70;;;;;;10343686;28;20221;-70
2022/05/08 15:51:23;;;;;;;5.03;2.70;;;21.30;84.60;;;;;;10357688;28;20387;-71
2022/05/08 15:56:24;;;;;;;9.20;2.87;;;21.40;84.90;;;;;;10370251;28;20339;-71
2022/05/08 16:01:26;;;;;;;6.03;3.10;;;21.30;86.10;;;;;;10375259;28;20745;-70
2022/05/08 16:06:26;;;;;;;7.93;3.03;;;21.30;87.10;;;;;;10366836;28;20228;-70
2022/05/08 16:11:27;;;;;;;3.33;2.97;;;21.40;86.80;;;;;;10365510;28;20877;-70
2022/05/08 16:27:15;;;;;;;5.37;3.20;;;21.20;90.20;;;;;;10339302;28;20214;-69
2022/05/08 16:32:18;;;;;;;5.63;3.23;;;20.90;88.70;;;;;;10357453;28;20240;-70
2022/05/08 16:37:19;;;;;;;4.00;3.43;;;21.00;90.00;;;;;;10356060;28;20213;-71
2022/05/08 16:42:20;;;;;;;4.83;3.17;;;20.80;90.30;;;;;;10358221;28;20700;-70
2022/05/08 16:47:20;;;;;;;4.80;3.50;;;20.80;90.20;;;;;;10365214;28;20213;-71
2022/05/08 16:52:21;;;;;;;3.47;2.93;;;20.70;90.80;;;;;;10343580;28;20222;-70
2022/05/08 16:57:22;;;;;;;4.40;3.50;;;20.90;90.50;;;;;;10355323;28;20719;-70
2022/05/08 17:02:23;;;;;;;3.63;3.27;;;20.80;90.90;;;;;;10346289;28;20221;-75
2022/05/08 17:07:28;;;;;;;6.10;4.47;;;20.80;91.30;;;;;;10351837;28;20316;-70
2022/05/08 17:12:29;;;;;;;4.80;4.23;;;20.80;91.60;;;;;;10357782;28;20299;-71
2022/05/08 17:17:31;;;;;;;4.40;4.00;;;20.70;91.90;;;;;;10343695;28;20209;-71
2022/05/08 17:22:31;;;;;;;6.93;4.57;;;20.60;92.60;;;;;;10356845;28;20238;-70
2022/05/08 17:32:51;;;;;;;4.07;3.77;;;20.30;93.50;;;;;;10363110;28;20217;-71
2022/05/08 17:37:52;;;;;;;5.50;4.33;;;20.20;94.10;;;;;;10361259;28;20810;-71
2022/05/08 17:42:52;;;;;;;4.97;4.20;;;20.30;94.40;;;;;;10353370;28;20234;-72
2022/05/08 17:47:53;;;;;;;5.43;4.00;;;20.30;94.60;;;;;;10355458;28;20378;-71
2022/05/08 17:52:54;;;;;;;5.83;4.30;;;20.30;94.40;;;;;;10346092;28;20233;-71
2022/05/08 17:57:54;;;;;;;5.47;3.87;;;20.20;94.60;;;;;;10336433;28;20293;-71
2022/05/08 18:08:14;;;;;;;5.93;4.07;;;20.10;94.80;;;;;;10365370;28;20217;-71
2022/05/08 18:13:16;;;;;;;8.60;4.40;;;20.00;94.30;;;;;;10359516;28;20229;-71
2022/05/08 18:18:16;;;;;;;4.87;3.83;;;20.00;94.40;;;;;;10360189;28;20221;-71
2022/05/08 18:23:17;;;;;;;5.73;4.23;;;19.90;94.20;;;;;;10362486;28;20656;-72
2022/05/08 18:28:22;;;;;;;7.37;4.00;;;19.80;95.00;;;;;;10365743;28;20224;-72
2022/05/08 18:33:23;;;;;;;4.33;3.93;;;19.60;94.90;;;;;;10370226;28;20659;-72
2022/05/08 18:38:25;;;;;;;5.03;3.90;;;19.40;95.70;;;;;;10357160;28;20308;-71
2022/05/08 18:43:26;;;;;;;5.87;4.10;;;19.20;96.50;;;;;;10353202;28;20227;-72
2022/05/08 18:48:27;;;;;;;6.60;4.00;;;19.00;96.90;;;;;;10343328;28;20712;-72
2022/05/08 18:53:27;;;;;;;5.07;4.30;;;18.90;97.00;;;;;;10342595;28;20258;-71
2022/05/08 18:58:29;;;;;;;10.30;4.90;;;18.70;97.70;;;;;;10351981;28;20224;-71
2022/05/08 19:03:29;;;;;;;8.47;4.60;;;18.70;98.20;;;;;;10341679;28;20224;-72
2022/05/08 19:08:36;;;;;;;6.83;4.93;;;18.60;98.90;;;;;;10351111;28;20216;-71
2022/05/08 19:13:38;;;;;;;9.87;5.10;;;18.50;99.60;;;;;;10351708;28;20721;-71
2022/05/08 19:18:39;;;;;;;6.83;5.23;;;18.40;99.90;;;;;;10352727;28;20275;-71
2022/05/08 19:23:39;;;;;;;7.30;4.80;;;18.40;99.90;;;;;;10344734;28;20228;-70
2022/05/08 19:28:40;;;;;;;6.63;4.60;;;18.30;99.90;;;;;;10367545;28;20217;-72
2022/05/08 19:39:02;;;;;;;13.57;5.80;;;18.10;99.90;;;;;;10378681;28;20235;-72
2022/05/08 19:44:04;;;;;;;11.70;5.40;;;18.10;99.90;;;;;;10332362;28;20220;-72
2022/05/08 19:49:05;;;;;;;5.40;4.90;;;18.10;99.90;;;;;;10338925;28;20256;-73
2022/05/08 19:54:06;;;;;;;8.37;5.43;;;17.90;99.90;;;;;;10336516;28;20260;-72
2022/05/08 19:59:06;;;;;;;8.00;5.40;;;17.80;99.90;;;;;;10360829;28;20223;-73
2022/05/08 20:04:07;;;;;;;7.13;4.97;;;17.70;99.90;;;;;;10369384;28;20224;-73
2022/05/08 20:09:07;;;;;;;6.63;5.17;;;17.60;99.90;;;;;;10351443;28;20264;-71
2022/05/08 20:14:08;;;;;;;6.90;5.83;;;17.60;99.90;;;;;;10356540;28;20592;-72
2022/05/08 20:19:11;;;;;;;8.43;6.10;;;17.50;99.90;;;;;;10341919;28;20225;-71
2022/05/08 20:24:12;;;;;;;9.83;6.17;;;17.50;99.90;;;;;;10349977;28;20225;-71
2022/05/08 20:29:15;;;;;;;10.87;5.93;;;17.40;99.90;;;;;;10347406;28;20216;-73
2022/05/08 20:34:15;;;;;;;9.67;6.10;;;17.30;99.90;;;;;;10349130;28;20714;-72
2022/05/08 20:39:18;;;;;;;10.07;6.90;;;17.30;99.90;;;;;;10351196;28;20239;-71
2022/05/08 20:44:20;;;;;;;9.23;6.53;;;17.20;99.90;;;;;;10360867;28;20265;-72
2022/05/08 20:49:21;;;;;;;7.50;6.70;;;17.10;99.90;;;;;;10344232;28;20277;-73
2022/05/08 20:54:22;;;;;;;7.57;6.67;;;17.00;99.90;;;;;;10366871;28;20702;-74
2022/05/08 20:59:25;;;;;;;7.07;6.37;;;16.90;99.90;;;;;;10349996;28;20192;-73
2022/05/08 21:04:26;;;;;;;8.63;6.67;;;16.80;99.90;;;;;;10364106;28;20757;-73
2022/05/08 21:09:33;;;;;;;9.70;7.20;;;16.70;99.90;;;;;;10366532;28;20231;-72
2022/05/08 21:14:33;;;;;;;9.23;8.30;;;16.60;99.90;;;;;;10358448;28;20921;-72
2022/05/08 21:19:34;;;;;;;11.30;8.00;;;16.60;99.90;;;;;;10360173;28;20300;-73
2022/05/08 21:24:35;;;;;;;8.77;6.70;;;16.60;99.90;;;;;;10362707;28;20223;-72
2022/05/08 21:29:35;;;;;;;9.23;7.17;;;16.50;99.90;;;;;;10358191;28;20684;-71
2022/05/08 21:34:36;;;;;;;10.10;7.40;;;16.50;99.90;;;;;;10360197;28;20263;-72
2022/05/08 21:39:37;;;;;;;8.63;7.27;;;16.40;99.90;;;;;;10351159;28;20254;-72
2022/05/08 21:44:38;;;;;;;10.10;6.77;;;16.40;99.90;;;;;;10364598;28;20266;-72
2022/05/08 21:49:41;;;;;;;10.00;7.57;;;16.30;99.90;;;;;;10363464;28;20224;-73
2022/05/08 21:54:41;;;;;;;11.97;7.83;;;16.30;99.90;;;;;;10369310;28;20313;-72
2022/05/08 21:59:42;;;;;;;11.10;7.60;;;16.20;99.90;;;;;;10355833;28;20308;-72
2022/05/08 22:04:43;;;;;;;9.50;7.63;;;16.10;99.90;;;;;;10348665;28;20224;-72
2022/05/08 22:09:44;;;;;;;11.23;7.50;;;16.00;99.90;;;;;;10354083;28;20228;-73
2022/05/08 22:14:44;;;;;;;8.27;7.30;;;16.00;99.90;;;;;;10357973;28;20263;-72
2022/05/08 22:19:45;;;;;;;10.07;7.00;;;15.90;99.90;;;;;;10366457;28;20256;-71
2022/05/08 22:24:45;;;;;;;13.07;8.43;;;15.80;99.90;;;;;;10351757;28;20224;-71
2022/05/08 22:29:47;;;;;;;10.33;7.77;;;15.80;99.90;;;;;;10345539;28;20235;-71
2022/05/08 22:34:48;;;;;;;14.33;9.20;;;15.70;99.90;;;;;;10360811;28;20231;-72
2022/05/08 22:39:48;;;;;;;11.17;8.13;;;15.60;99.90;;;;;;10360439;28;20311;-72
2022/05/08 22:44:49;;;;;;;10.47;7.23;;;15.60;99.90;;;;;;10357740;28;20227;-72
2022/05/08 22:49:50;;;;;;;11.43;7.87;;;15.50;99.90;;;;;;10356328;28;20277;-72
2022/05/08 22:54:50;;;;;;;7.77;6.90;;;15.40;99.90;;;;;;10361473;28;20232;-72
2022/05/08 22:59:51;;;;;;;9.30;7.93;;;15.30;99.90;;;;;;10369427;28;20224;-72
2022/05/08 23:04:51;;;;;;;11.03;7.40;;;15.30;99.90;;;;;;10359752;28;20239;-71
2022/05/08 23:09:52;;;;;;;9.27;7.37;;;15.20;99.90;;;;;;10360687;28;20225;-71
2022/05/08 23:20:15;;;;;;;10.00;7.17;;;15.20;99.90;;;;;;10360628;28;20585;-72
2022/05/08 23:25:25;;;;;;;9.33;7.43;;;15.20;99.90;;;;;;10361892;28;20185;-71
2022/05/08 23:30:29;;;;;;;9.47;6.97;;;15.10;99.90;;;;;;10364634;28;20225;-71
2022/05/08 23:35:30;;;;;;;9.87;7.07;;;15.00;99.90;;;;;;10356557;28;20826;-72
2022/05/08 23:40:32;;;;;;;10.50;6.97;;;15.00;99.90;;;;;;10364867;28;20235;-71
2022/05/08 23:45:34;;;;;;;8.10;6.77;;;14.90;99.90;;;;;;10344209;28;20307;-72
2022/05/08 23:50:34;;;;;;;12.30;7.13;;;14.80;99.90;;;;;;10360447;28;20224;-72
2022/05/08 23:55:35;;;;;;;9.73;6.60;;;14.80;99.90;;;;;;10357888;28;20225;-72
